sensor_id;sensor_type;location;lat;lon;timestamp;pressure;altitude;pressure_sealevel;temperature;humidity
71573;BME280;59408;51.032;9.410;2022-11-20T00:00:17;98718.44;;;-9.17;100.00
71573;BME280;59408;51.032;9.410;2022-11-20T00:02:43;98719.47;;;-9.18;100.00
71573;BME280;59408;51.032;9.410;2022-11-20T00:05:10;98716.25;;;-9.20;100.00
71573;BME280;59408;51.032;9.410;2022-11-20T00:07:38;98707.75;;;-9.22;100.00
71573;BME280;59408;51.032;9.410;2022-11-20T00:10:05;98711.19;;;-9.21;100.00
71573;BME280;59408;51.032;9.410;2022-11-20T00:12:31;98711.19;;;-9.21;100.00
71573;BME280;59408;51.032;9.410;2022-11-20T00:14:58;98713.25;;;-9.23;100.00
71573;BME280;59408;51.032;9.410;2022-11-20T00:17:25;98698.41;;;-9.24;100.00
71573;BME280;59408;51.032;9.410;2022-11-20T00:19:51;98702.91;;;-9.25;100.00
71573;BME280;59408;51.032;9.410;2022-11-20T00:22:18;98713.66;;;-9.26;100.00
71573;BME280;59408;51.032;9.410;2022-11-20T00:24:46;98705.19;;;-9.28;100.00
71573;BME280;59408;51.032;9.410;2022-11-20T00:27:12;98705.19;;;-9.28;100.00
71573;BME280;59408;51.032;9.410;2022-11-20T00:29:39;98702.75;;;-9.30;100.00
71573;BME280;59408;51.032;9.410;2022-11-20T00:32:06;98704.59;;;-9.31;100.00
71573;BME280;59408;51.032;9.410;2022-11-20T00:34:32;98703.81;;;-9.31;100.00
71573;BME280;59408;51.032;9.410;2022-11-20T00:36:59;98701.94;;;-9.31;100.00
71573;BME280;59408;51.032;9.410;2022-11-20T00:39:25;98711.94;;;-9.33;100.00
71573;BME280;59408;51.032;9.410;2022-11-20T00:41:53;98708.50;;;-9.33;100.00
71573;BME280;59408;51.032;9.410;2022-11-20T00:44:20;98704.25;;;-9.34;100.00
71573;BME280;59408;51.032;9.410;2022-11-20T00:46:46;98698.16;;;-9.35;100.00
71573;BME280;59408;51.032;9.410;2022-11-20T00:49:13;98689.41;;;-9.35;100.00
71573;BME280;59408;51.032;9.410;2022-11-20T00:51:39;98697.34;;;-9.35;100.00
71573;BME280;59408;51.032;9.410;2022-11-20T00:54:06;98693.91;;;-9.36;100.00
71573;BME280;59408;51.032;9.410;2022-11-20T00:56:33;98692.88;;;-9.35;100.00
71573;BME280;59408;51.032;9.410;2022-11-20T00:59:01;98685.16;;;-9.36;100.00
71573;BME280;59408;51.032;9.410;2022-11-20T01:01:28;98682.75;;;-9.38;100.00
71573;BME280;59408;51.032;9.410;2022-11-20T01:03:56;98692.72;;;-9.40;100.00
71573;BME280;59408;51.032;9.410;2022-11-20T01:06:24;98673.88;;;-9.43;100.00
71573;BME280;59408;51.032;9.410;2022-11-20T01:08:54;98667.19;;;-9.46;100.00
71573;BME280;59408;51.032;9.410;2022-11-20T01:11:23;98656.28;;;-9.49;100.00
71573;BME280;59408;51.032;9.410;2022-11-20T01:13:51;98664.19;;;-9.49;100.00
71573;BME280;59408;51.032;9.410;2022-11-20T01:16:21;98666.84;;;-9.49;100.00
71573;BME280;59408;51.032;9.410;2022-11-20T01:18:50;98668.06;;;-9.52;100.00
71573;BME280;59408;51.032;9.410;2022-11-20T01:21:19;98669.09;;;-9.53;100.00
71573;BME280;59408;51.032;9.410;2022-11-20T01:23:47;98669.09;;;-9.53;100.00
71573;BME280;59408;51.032;9.410;2022-11-20T01:26:16;98662.78;;;-9.52;100.00
71573;BME280;59408;51.032;9.410;2022-11-20T01:28:43;98659.13;;;-9.51;100.00
71573;BME280;59408;51.032;9.410;2022-11-20T01:31:11;98654.66;;;-9.50;100.00
71573;BME280;59408;51.032;9.410;2022-11-20T01:33:40;98653.84;;;-9.51;100.00
71573;BME280;59408;51.032;9.410;2022-11-20T01:36:08;98653.84;;;-9.51;100.00
71573;BME280;59408;51.032;9.410;2022-11-20T01:38:35;98646.97;;;-9.52;100.00
71573;BME280;59408;51.032;9.410;2022-11-20T01:41:02;98645.56;;;-9.54;100.00
71573;BME280;59408;51.032;9.410;2022-11-20T01:43:30;98647.97;;;-9.53;100.00
71573;BME280;59408;51.032;9.410;2022-11-20T01:46:05;98644.75;;;-9.55;100.00
71573;BME280;59408;51.032;9.410;2022-11-20T01:48:36;98642.09;;;-9.55;100.00
71573;BME280;59408;51.032;9.410;2022-11-20T01:51:12;98637.06;;;-9.56;100.00
71573;BME280;59408;51.032;9.410;2022-11-20T01:53:42;98640.75;;;-9.57;100.00
71573;BME280;59408;51.032;9.410;2022-11-20T01:56:11;98641.75;;;-9.58;100.00
71573;BME280;59408;51.032;9.410;2022-11-20T01:58:42;98640.94;;;-9.59;100.00
71573;BME280;59408;51.032;9.410;2022-11-20T02:01:10;98644.41;;;-9.58;100.00
71573;BME280;59408;51.032;9.410;2022-11-20T02:03:38;98641.16;;;-9.60;100.00
71573;BME280;59408;51.032;9.410;2022-11-20T02:06:11;98652.94;;;-9.63;100.00
71573;BME280;59408;51.032;9.410;2022-11-20T02:08:39;98649.50;;;-9.63;100.00
71573;BME280;59408;51.032;9.410;2022-11-20T02:11:06;98642.63;;;-9.64;100.00
71573;BME280;59408;51.032;9.410;2022-11-20T02:13:33;98632.88;;;-9.64;100.00
71573;BME280;59408;51.032;9.410;2022-11-20T02:16:00;98636.09;;;-9.62;100.00
71573;BME280;59408;51.032;9.410;2022-11-20T02:18:27;98636.63;;;-9.53;100.00
71573;BME280;59408;51.032;9.410;2022-11-20T02:20:59;98624.31;;;-9.41;100.00
71573;BME280;59408;51.032;9.410;2022-11-20T02:23:32;98628.38;;;-9.27;100.00
71573;BME280;59408;51.032;9.410;2022-11-20T02:26:03;98624.78;;;-9.14;100.00
71573;BME280;59408;51.032;9.410;2022-11-20T02:28:32;98624.25;;;-9.05;100.00
71573;BME280;59408;51.032;9.410;2022-11-20T02:30:59;98622.91;;;-8.96;100.00
71573;BME280;59408;51.032;9.410;2022-11-20T02:33:26;98617.91;;;-8.85;100.00
71573;BME280;59408;51.032;9.410;2022-11-20T02:35:53;98611.28;;;-8.76;100.00
71573;BME280;59408;51.032;9.410;2022-11-20T02:38:19;98621.31;;;-8.67;100.00
71573;BME280;59408;51.032;9.410;2022-11-20T02:40:46;98613.06;;;-8.59;100.00
71573;BME280;59408;51.032;9.410;2022-11-20T02:43:22;98613.53;;;-8.50;100.00
71573;BME280;59408;51.032;9.410;2022-11-20T02:45:48;98622.16;;;-8.43;100.00
71573;BME280;59408;51.032;9.410;2022-11-20T02:48:15;98617.34;;;-8.34;100.00
71573;BME280;59408;51.032;9.410;2022-11-20T02:50:41;98621.50;;;-8.27;100.00
71573;BME280;59408;51.032;9.410;2022-11-20T02:53:08;98628.53;;;-8.21;100.00
71573;BME280;59408;51.032;9.410;2022-11-20T02:55:35;98621.53;;;-8.15;100.00
71573;BME280;59408;51.032;9.410;2022-11-20T02:58:02;98619.34;;;-8.06;100.00
71573;BME280;59408;51.032;9.410;2022-11-20T03:00:29;98619.22;;;-8.00;100.00
71573;BME280;59408;51.032;9.410;2022-11-20T03:02:56;98620.75;;;-7.92;100.00
71573;BME280;59408;51.032;9.410;2022-11-20T03:05:23;98614.28;;;-7.85;100.00
71573;BME280;59408;51.032;9.410;2022-11-20T03:07:49;98618.66;;;-7.78;100.00
71573;BME280;59408;51.032;9.410;2022-11-20T03:10:16;98618.75;;;-7.73;100.00
71573;BME280;59408;51.032;9.410;2022-11-20T03:12:43;98618.66;;;-7.67;100.00
71573;BME280;59408;51.032;9.410;2022-11-20T03:15:09;98610.59;;;-7.60;100.00
71573;BME280;59408;51.032;9.410;2022-11-20T03:17:37;98616.56;;;-7.53;100.00
71573;BME280;59408;51.032;9.410;2022-11-20T03:20:05;98615.88;;;-7.49;100.00
71573;BME280;59408;51.032;9.410;2022-11-20T03:22:32;98611.47;;;-7.43;100.00
71573;BME280;59408;51.032;9.410;2022-11-20T03:24:58;98616.91;;;-7.38;100.00
71573;BME280;59408;51.032;9.410;2022-11-20T03:27:25;98616.19;;;-7.33;100.00
71573;BME280;59408;51.032;9.410;2022-11-20T03:29:51;98605.94;;;-7.30;100.00
71573;BME280;59408;51.032;9.410;2022-11-20T03:32:18;98602.94;;;-7.22;100.00
71573;BME280;59408;51.032;9.410;2022-11-20T03:34:46;98603.59;;;-7.15;100.00
71573;BME280;59408;51.032;9.410;2022-11-20T03:37:12;98593.66;;;-7.08;100.00
71573;BME280;59408;51.032;9.410;2022-11-20T03:39:39;98597.44;;;-7.03;100.00
71573;BME280;59408;51.032;9.410;2022-11-20T03:42:05;98589.00;;;-7.00;100.00
71573;BME280;59408;51.032;9.410;2022-11-20T03:44:32;98591.19;;;-6.97;100.00
71573;BME280;59408;51.032;9.410;2022-11-20T03:46:59;98587.06;;;-6.93;100.00
71573;BME280;59408;51.032;9.410;2022-11-20T03:49:25;98592.66;;;-6.90;100.00
71573;BME280;59408;51.032;9.410;2022-11-20T03:51:53;98582.38;;;-6.86;100.00
71573;BME280;59408;51.032;9.410;2022-11-20T03:54:20;98582.44;;;-6.81;100.00
71573;BME280;59408;51.032;9.410;2022-11-20T03:56:46;98579.56;;;-6.80;100.00
71573;BME280;59408;51.032;9.410;2022-11-20T03:59:13;98571.16;;;-6.77;100.00
71573;BME280;59408;51.032;9.410;2022-11-20T04:01:40;98571.22;;;-6.72;100.00
71573;BME280;59408;51.032;9.410;2022-11-20T04:04:12;98581.13;;;-6.67;100.00
71573;BME280;59408;51.032;9.410;2022-11-20T04:06:38;98578.78;;;-6.63;100.00
71573;BME280;59408;51.032;9.410;2022-11-20T04:09:12;98575.44;;;-6.59;100.00
71573;BME280;59408;51.032;9.410;2022-11-20T04:11:42;98578.16;;;-6.54;100.00
71573;BME280;59408;51.032;9.410;2022-11-20T04:14:13;98579.78;;;-6.53;100.00
71573;BME280;59408;51.032;9.410;2022-11-20T04:16:40;98569.50;;;-6.49;100.00
71573;BME280;59408;51.032;9.410;2022-11-20T04:19:11;98567.72;;;-6.44;100.00
71573;BME280;59408;51.032;9.410;2022-11-20T04:21:39;98570.72;;;-6.40;100.00
71573;BME280;59408;51.032;9.410;2022-11-20T04:24:08;98574.25;;;-6.35;100.00
71573;BME280;59408;51.032;9.410;2022-11-20T04:26:34;98567.09;;;-6.34;100.00
71573;BME280;59408;51.032;9.410;2022-11-20T04:29:01;98567.66;;;-6.32;100.00
71573;BME280;59408;51.032;9.410;2022-11-20T04:31:30;98560.56;;;-6.27;100.00
71573;BME280;59408;51.032;9.410;2022-11-20T04:33:59;98566.22;;;-6.23;100.00
71573;BME280;59408;51.032;9.410;2022-11-20T04:36:27;98558.56;;;-6.19;100.00
71573;BME280;59408;51.032;9.410;2022-11-20T04:38:55;98562.03;;;-6.19;100.00
71573;BME280;59408;51.032;9.410;2022-11-20T04:41:25;98562.03;;;-6.19;100.00
71573;BME280;59408;51.032;9.410;2022-11-20T04:43:54;98558.88;;;-6.16;100.00
71573;BME280;59408;51.032;9.410;2022-11-20T04:46:21;98570.94;;;-6.08;100.00
71573;BME280;59408;51.032;9.410;2022-11-20T04:48:47;98572.53;;;-6.07;100.00
71573;BME280;59408;51.032;9.410;2022-11-20T04:51:14;98571.25;;;-6.05;100.00
71573;BME280;59408;51.032;9.410;2022-11-20T04:53:41;98564.97;;;-5.99;100.00
71573;BME280;59408;51.032;9.410;2022-11-20T04:56:10;98560.47;;;-5.98;100.00
71573;BME280;59408;51.032;9.410;2022-11-20T04:58:38;98560.81;;;-5.95;100.00
71573;BME280;59408;51.032;9.410;2022-11-20T05:01:06;98547.28;;;-5.93;100.00
71573;BME280;59408;51.032;9.410;2022-11-20T05:03:33;98550.47;;;-5.91;100.00
71573;BME280;59408;51.032;9.410;2022-11-20T05:06:08;98556.34;;;-5.89;100.00
71573;BME280;59408;51.032;9.410;2022-11-20T05:08:35;98546.28;;;-5.87;100.00
71573;BME280;59408;51.032;9.410;2022-11-20T05:11:03;98536.00;;;-5.83;100.00
71573;BME280;59408;51.032;9.410;2022-11-20T05:13:30;98537.59;;;-5.82;100.00
71573;BME280;59408;51.032;9.410;2022-11-20T05:16:02;98529.47;;;-5.76;100.00
71573;BME280;59408;51.032;9.410;2022-11-20T05:18:29;98529.75;;;-5.72;100.00
71573;BME280;59408;51.032;9.410;2022-11-20T05:20:56;98522.13;;;-5.69;100.00
71573;BME280;59408;51.032;9.410;2022-11-20T05:23:23;98533.31;;;-5.67;100.00
71573;BME280;59408;51.032;9.410;2022-11-20T05:25:52;98539.72;;;-5.63;100.00
71573;BME280;59408;51.032;9.410;2022-11-20T05:28:25;98539.72;;;-5.63;100.00
71573;BME280;59408;51.032;9.410;2022-11-20T05:30:51;98536.81;;;-5.61;100.00
71573;BME280;59408;51.032;9.410;2022-11-20T05:33:20;98544.53;;;-5.60;100.00
71573;BME280;59408;51.032;9.410;2022-11-20T05:35:47;98541.88;;;-5.60;100.00
71573;BME280;59408;51.032;9.410;2022-11-20T05:38:13;98549.38;;;-5.57;100.00
71573;BME280;59408;51.032;9.410;2022-11-20T05:40:40;98558.94;;;-5.56;100.00
71573;BME280;59408;51.032;9.410;2022-11-20T05:43:07;98557.88;;;-5.55;100.00
71573;BME280;59408;51.032;9.410;2022-11-20T05:45:33;98551.50;;;-5.54;100.00
71573;BME280;59408;51.032;9.410;2022-11-20T05:48:00;98557.88;;;-5.55;100.00
71573;BME280;59408;51.032;9.410;2022-11-20T05:50:28;98553.94;;;-5.52;100.00
71573;BME280;59408;51.032;9.410;2022-11-20T05:52:54;98554.25;;;-5.48;100.00
71573;BME280;59408;51.032;9.410;2022-11-20T05:55:23;98542.88;;;-5.44;100.00
71573;BME280;59408;51.032;9.410;2022-11-20T05:57:52;98548.75;;;-5.42;100.00
71573;BME280;59408;51.032;9.410;2022-11-20T06:00:19;98539.16;;;-5.43;100.00
71573;BME280;59408;51.032;9.410;2022-11-20T06:02:45;98536.03;;;-5.40;100.00
71573;BME280;59408;51.032;9.410;2022-11-20T06:05:12;98544.72;;;-5.44;100.00
71573;BME280;59408;51.032;9.410;2022-11-20T06:07:40;98542.88;;;-5.44;100.00
71573;BME280;59408;51.032;9.410;2022-11-20T06:10:07;98533.28;;;-5.45;100.00
71573;BME280;59408;51.032;9.410;2022-11-20T06:12:34;98534.59;;;-5.47;100.00
71573;BME280;59408;51.032;9.410;2022-11-20T06:15:01;98537.50;;;-5.49;100.00
71573;BME280;59408;51.032;9.410;2022-11-20T06:17:28;98534.91;;;-5.44;100.00
71573;BME280;59408;51.032;9.410;2022-11-20T06:19:54;98534.41;;;-5.41;100.00
71573;BME280;59408;51.032;9.410;2022-11-20T06:22:21;98538.97;;;-5.36;100.00
71573;BME280;59408;51.032;9.410;2022-11-20T06:24:49;98548.78;;;-5.37;100.00
71573;BME280;59408;51.032;9.410;2022-11-20T06:27:15;98545.28;;;-5.42;100.00
71573;BME280;59408;51.032;9.410;2022-11-20T06:29:43;98539.78;;;-5.36;100.00
71573;BME280;59408;51.032;9.410;2022-11-20T06:32:09;98552.25;;;-5.36;100.00
71573;BME280;59408;51.032;9.410;2022-11-20T06:34:36;98551.22;;;-5.35;100.00
71573;BME280;59408;51.032;9.410;2022-11-20T06:37:03;98555.19;;;-5.38;100.00
71573;BME280;59408;51.032;9.410;2022-11-20T06:39:29;98553.34;;;-5.37;100.00
71573;BME280;59408;51.032;9.410;2022-11-20T06:41:57;98547.22;;;-5.38;100.00
71573;BME280;59408;51.032;9.410;2022-11-20T06:44:24;98548.78;;;-5.37;100.00
71573;BME280;59408;51.032;9.410;2022-11-20T06:46:51;98551.97;;;-5.40;100.00
71573;BME280;59408;51.032;9.410;2022-11-20T06:49:18;98556.00;;;-5.37;100.00
71573;BME280;59408;51.032;9.410;2022-11-20T06:51:45;98547.47;;;-5.39;100.00
71573;BME280;59408;51.032;9.410;2022-11-20T06:54:11;98545.59;;;-5.39;100.00
71573;BME280;59408;51.032;9.410;2022-11-20T06:56:38;98547.75;;;-5.36;100.00
71573;BME280;59408;51.032;9.410;2022-11-20T06:59:06;98545.91;;;-5.35;100.00
71573;BME280;59408;51.032;9.410;2022-11-20T07:01:33;98541.13;;;-5.33;100.00
71573;BME280;59408;51.032;9.410;2022-11-20T07:04:00;98534.28;;;-5.29;100.00
71573;BME280;59408;51.032;9.410;2022-11-20T07:06:26;98540.13;;;-5.27;100.00
71573;BME280;59408;51.032;9.410;2022-11-20T07:08:53;98540.66;;;-5.30;100.00
71573;BME280;59408;51.032;9.410;2022-11-20T07:11:20;98526.25;;;-5.34;100.00
71573;BME280;59408;51.032;9.410;2022-11-20T07:13:46;98534.00;;;-5.28;100.00
71573;BME280;59408;51.032;9.410;2022-11-20T07:16:14;98534.91;;;-5.22;100.00
71573;BME280;59408;51.032;9.410;2022-11-20T07:18:41;98534.69;;;-5.16;100.00
71573;BME280;59408;51.032;9.410;2022-11-20T07:21:15;98536.63;;;-5.11;100.00
71573;BME280;59408;51.032;9.410;2022-11-20T07:23:42;98534.81;;;-5.05;100.00
71573;BME280;59408;51.032;9.410;2022-11-20T07:26:10;98544.19;;;-4.98;100.00
71573;BME280;59408;51.032;9.410;2022-11-20T07:28:37;98545.00;;;-4.97;100.00
71573;BME280;59408;51.032;9.410;2022-11-20T07:31:04;98544.72;;;-5.01;100.00
71573;BME280;59408;51.032;9.410;2022-11-20T07:33:32;98544.16;;;-5.03;100.00
71573;BME280;59408;51.032;9.410;2022-11-20T07:36:00;98550.28;;;-5.02;100.00
71573;BME280;59408;51.032;9.410;2022-11-20T07:38:27;98547.38;;;-5.01;100.00
71573;BME280;59408;51.032;9.410;2022-11-20T07:40:54;98547.63;;;-5.02;100.00
71573;BME280;59408;51.032;9.410;2022-11-20T07:43:20;98548.94;;;-5.00;100.00
71573;BME280;59408;51.032;9.410;2022-11-20T07:45:47;98556.69;;;-4.98;100.00
71573;BME280;59408;51.032;9.410;2022-11-20T07:48:13;98558.84;;;-4.95;100.00
71573;BME280;59408;51.032;9.410;2022-11-20T07:50:41;98552.72;;;-4.96;100.00
71573;BME280;59408;51.032;9.410;2022-11-20T07:53:08;98547.97;;;-4.94;100.00
71573;BME280;59408;51.032;9.410;2022-11-20T07:55:34;98551.13;;;-4.97;100.00
71573;BME280;59408;51.032;9.410;2022-11-20T07:58:01;98550.63;;;-4.94;100.00
71573;BME280;59408;51.032;9.410;2022-11-20T08:00:27;98556.22;;;-4.90;100.00
71573;BME280;59408;51.032;9.410;2022-11-20T08:02:54;98566.13;;;-4.86;100.00
71573;BME280;59408;51.032;9.410;2022-11-20T08:05:21;98560.00;;;-4.86;100.00
71573;BME280;59408;51.032;9.410;2022-11-20T08:07:49;98561.66;;;-4.80;100.00
71573;BME280;59408;51.032;9.410;2022-11-20T08:10:16;98558.00;;;-4.74;100.00
71573;BME280;59408;51.032;9.410;2022-11-20T08:12:47;98568.69;;;-4.69;100.00
71573;BME280;59408;51.032;9.410;2022-11-20T08:15:13;98565.56;;;-4.61;100.00
71573;BME280;59408;51.032;9.410;2022-11-20T08:17:40;98559.75;;;-4.58;100.00
71573;BME280;59408;51.032;9.410;2022-11-20T08:20:07;98567.19;;;-4.60;100.00
71573;BME280;59408;51.032;9.410;2022-11-20T08:22:34;98569.88;;;-4.55;100.00
71573;BME280;59408;51.032;9.410;2022-11-20T08:25:03;98574.16;;;-4.54;100.00
71573;BME280;59408;51.032;9.410;2022-11-20T08:27:31;98573.09;;;-4.53;100.00
71573;BME280;59408;51.032;9.410;2022-11-20T08:29:57;98569.94;;;-4.50;100.00
71573;BME280;59408;51.032;9.410;2022-11-20T08:32:24;98575.84;;;-4.43;100.00
71573;BME280;59408;51.032;9.410;2022-11-20T08:34:50;98572.22;;;-4.31;100.00
71573;BME280;59408;51.032;9.410;2022-11-20T08:37:17;98570.66;;;-4.27;100.00
71573;BME280;59408;51.032;9.410;2022-11-20T08:39:44;98559.22;;;-4.28;100.00
71573;BME280;59408;51.032;9.410;2022-11-20T08:42:12;98565.38;;;-4.22;100.00
71573;BME280;59408;51.032;9.410;2022-11-20T08:44:38;98571.28;;;-4.15;100.00
71573;BME280;59408;51.032;9.410;2022-11-20T08:47:05;98574.66;;;-4.25;100.00
71573;BME280;59408;51.032;9.410;2022-11-20T08:49:32;98565.00;;;-4.36;100.00
71573;BME280;59408;51.032;9.410;2022-11-20T08:51:58;98566.34;;;-4.33;100.00
71573;BME280;59408;51.032;9.410;2022-11-20T08:54:25;98573.84;;;-4.30;100.00
71573;BME280;59408;51.032;9.410;2022-11-20T08:56:51;98573.84;;;-4.30;100.00
71573;BME280;59408;51.032;9.410;2022-11-20T08:59:19;98575.47;;;-4.24;100.00
71573;BME280;59408;51.032;9.410;2022-11-20T09:02:06;98582.50;;;-4.13;100.00
71573;BME280;59408;51.032;9.410;2022-11-20T09:04:32;98580.63;;;-4.13;100.00
71573;BME280;59408;51.032;9.410;2022-11-20T09:07:00;98578.53;;;-4.11;100.00
71573;BME280;59408;51.032;9.410;2022-11-20T09:09:26;98585.50;;;-3.99;100.00
71573;BME280;59408;51.032;9.410;2022-11-20T09:11:53;98584.47;;;-3.98;100.00
71573;BME280;59408;51.032;9.410;2022-11-20T09:14:21;98586.63;;;-3.95;100.00
71573;BME280;59408;51.032;9.410;2022-11-20T09:16:48;98564.91;;;-3.77;100.00
71573;BME280;59408;51.032;9.410;2022-11-20T09:19:14;98580.38;;;-3.74;100.00
71573;BME280;59408;51.032;9.410;2022-11-20T09:22:01;98584.59;;;-3.78;100.00
71573;BME280;59408;51.032;9.410;2022-11-20T09:24:28;98581.63;;;-3.82;100.00
71573;BME280;59408;51.032;9.410;2022-11-20T09:26:54;98579.28;;;-3.78;100.00
71573;BME280;59408;51.032;9.410;2022-11-20T09:29:22;98566.25;;;-3.70;100.00
71573;BME280;59408;51.032;9.410;2022-11-20T09:31:49;98579.63;;;-3.65;100.00
71573;BME280;59408;51.032;9.410;2022-11-20T09:34:16;98583.13;;;-3.59;100.00
71573;BME280;59408;51.032;9.410;2022-11-20T09:36:42;98583.63;;;-3.62;100.00
71573;BME280;59408;51.032;9.410;2022-11-20T09:39:09;98581.28;;;-3.53;100.00
71573;BME280;59408;51.032;9.410;2022-11-20T09:41:53;98581.88;;;-3.46;100.00
71573;BME280;59408;51.032;9.410;2022-11-20T09:44:37;98579.22;;;-3.41;100.00
71573;BME280;59408;51.032;9.410;2022-11-20T09:47:11;98574.75;;;-3.31;100.00
71573;BME280;59408;51.032;9.410;2022-11-20T09:49:56;98574.81;;;-3.10;100.00
71573;BME280;59408;51.032;9.410;2022-11-20T09:52:33;98562.59;;;-3.01;100.00
71573;BME280;59408;51.032;9.410;2022-11-20T09:55:09;98575.13;;;-3.02;100.00
71573;BME280;59408;51.032;9.410;2022-11-20T09:57:38;98577.25;;;-2.99;100.00
71573;BME280;59408;51.032;9.410;2022-11-20T10:00:10;98576.16;;;-3.08;100.00
71573;BME280;59408;51.032;9.410;2022-11-20T10:02:42;98575.34;;;-3.13;100.00
71573;BME280;59408;51.032;9.410;2022-11-20T10:05:13;98578.50;;;-3.21;100.00
71573;BME280;59408;51.032;9.410;2022-11-20T10:07:45;98578.22;;;-3.25;100.00
71573;BME280;59408;51.032;9.410;2022-11-20T10:10:16;98572.34;;;-3.27;100.00
71573;BME280;59408;51.032;9.410;2022-11-20T10:12:56;98569.72;;;-3.17;100.00
71573;BME280;59408;51.032;9.410;2022-11-20T10:15:33;98559.94;;;-3.01;100.00
71573;BME280;59408;51.032;9.410;2022-11-20T10:18:23;98567.44;;;-2.83;100.00
71573;BME280;59408;51.032;9.410;2022-11-20T10:21:03;98564.50;;;-2.71;100.00
71573;BME280;59408;51.032;9.410;2022-11-20T10:23:44;98564.00;;;-2.73;100.00
71573;BME280;59408;51.032;9.410;2022-11-20T10:26:18;98558.94;;;-2.65;100.00
71573;BME280;59408;51.032;9.410;2022-11-20T10:29:01;98562.69;;;-2.56;100.00
71573;BME280;59408;51.032;9.410;2022-11-20T10:31:37;98562.69;;;-2.51;100.00
71573;BME280;59408;51.032;9.410;2022-11-20T10:34:08;98558.94;;;-2.55;100.00
71573;BME280;59408;51.032;9.410;2022-11-20T10:36:52;98561.63;;;-2.49;100.00
71573;BME280;59408;51.032;9.410;2022-11-20T10:39:26;98558.94;;;-2.49;100.00
71573;BME280;59408;51.032;9.410;2022-11-20T10:41:56;98550.94;;;-2.44;100.00
71573;BME280;59408;51.032;9.410;2022-11-20T10:44:26;98554.41;;;-2.34;100.00
71573;BME280;59408;51.032;9.410;2022-11-20T10:46:54;98553.63;;;-2.34;100.00
71573;BME280;59408;51.032;9.410;2022-11-20T10:49:21;98550.69;;;-2.43;99.56
71573;BME280;59408;51.032;9.410;2022-11-20T10:51:57;98545.88;;;-2.36;99.42
71573;BME280;59408;51.032;9.410;2022-11-20T10:54:33;98544.53;;;-2.33;100.00
71573;BME280;59408;51.032;9.410;2022-11-20T10:57:10;98544.81;;;-2.30;99.98
71573;BME280;59408;51.032;9.410;2022-11-20T10:59:59;98546.41;;;-2.34;99.24
71573;BME280;59408;51.032;9.410;2022-11-20T11:02:34;98542.38;;;-2.36;99.79
71573;BME280;59408;51.032;9.410;2022-11-20T11:05:14;98539.22;;;-2.38;99.54
71573;BME280;59408;51.032;9.410;2022-11-20T11:07:44;98544.81;;;-2.40;99.51
71573;BME280;59408;51.032;9.410;2022-11-20T11:10:16;98535.72;;;-2.34;99.26
71573;BME280;59408;51.032;9.410;2022-11-20T11:12:45;98537.34;;;-2.28;99.22
71573;BME280;59408;51.032;9.410;2022-11-20T11:15:14;98537.34;;;-2.28;98.74
71573;BME280;59408;51.032;9.410;2022-11-20T11:17:47;98521.31;;;-2.23;98.86
71573;BME280;59408;51.032;9.410;2022-11-20T11:20:18;98526.66;;;-2.13;99.67
71573;BME280;59408;51.032;9.410;2022-11-20T11:22:47;98530.09;;;-2.07;99.09
71573;BME280;59408;51.032;9.410;2022-11-20T11:25:23;98529.31;;;-2.13;98.71
71573;BME280;59408;51.032;9.410;2022-11-20T11:27:52;98525.03;;;-2.14;99.08
71573;BME280;59408;51.032;9.410;2022-11-20T11:30:19;98529.06;;;-2.21;99.40
71573;BME280;59408;51.032;9.410;2022-11-20T11:32:47;98529.84;;;-2.21;98.42
71573;BME280;59408;51.032;9.410;2022-11-20T11:35:25;98525.06;;;-2.29;98.75
71573;BME280;59408;51.032;9.410;2022-11-20T11:38:01;98522.91;;;-2.27;99.83
71573;BME280;59408;51.032;9.410;2022-11-20T11:40:30;98514.34;;;-2.24;99.74
71573;BME280;59408;51.032;9.410;2022-11-20T11:43:02;98506.84;;;-2.06;99.21
71573;BME280;59408;51.032;9.410;2022-11-20T11:45:30;98507.91;;;-1.92;97.94
71573;BME280;59408;51.032;9.410;2022-11-20T11:48:00;98511.09;;;-1.85;97.09
71573;BME280;59408;51.032;9.410;2022-11-20T11:50:29;98509.44;;;-1.71;97.29
71573;BME280;59408;51.032;9.410;2022-11-20T11:53:03;98515.03;;;-1.57;97.38
71573;BME280;59408;51.032;9.410;2022-11-20T11:55:36;98509.13;;;-1.54;97.01
71573;BME280;59408;51.032;9.410;2022-11-20T11:58:14;98485.31;;;-1.46;96.77
71573;BME280;59408;51.032;9.410;2022-11-20T12:00:49;98489.00;;;-1.31;96.35
71573;BME280;59408;51.032;9.410;2022-11-20T12:03:22;98480.94;;;-1.26;95.40
71573;BME280;59408;51.032;9.410;2022-11-20T12:05:56;98492.16;;;-1.19;95.84
71573;BME280;59408;51.032;9.410;2022-11-20T12:08:27;98500.97;;;-1.19;95.17
71573;BME280;59408;51.032;9.410;2022-11-20T12:10:59;98503.66;;;-1.19;95.40
71573;BME280;59408;51.032;9.410;2022-11-20T12:13:36;98501.25;;;-1.20;95.06
71573;BME280;59408;51.032;9.410;2022-11-20T12:16:10;98493.75;;;-1.18;95.51
71573;BME280;59408;51.032;9.410;2022-11-20T12:18:39;98491.78;;;-1.08;95.80
71573;BME280;59408;51.032;9.410;2022-11-20T12:21:17;98489.69;;;-1.11;94.66
71573;BME280;59408;51.032;9.410;2022-11-20T12:23:53;98488.63;;;-1.15;95.47
71573;BME280;59408;51.032;9.410;2022-11-20T12:26:32;98491.28;;;-1.10;96.02
71573;BME280;59408;51.032;9.410;2022-11-20T12:29:09;98489.31;;;-0.94;96.44
71573;BME280;59408;51.032;9.410;2022-11-20T12:32:00;98479.44;;;-0.98;95.53
71573;BME280;59408;51.032;9.410;2022-11-20T12:34:42;98487.28;;;-1.12;95.64
71573;BME280;59408;51.032;9.410;2022-11-20T12:37:17;98481.13;;;-1.13;95.79
71573;BME280;59408;51.032;9.410;2022-11-20T12:39:47;98486.19;;;-1.06;95.08
71573;BME280;59408;51.032;9.410;2022-11-20T12:42:35;98481.56;;;-0.95;95.85
71573;BME280;59408;51.032;9.410;2022-11-20T12:48:28;98482.25;;;-0.75;94.86
71573;BME280;59408;51.032;9.410;2022-11-20T12:51:15;98483.75;;;-0.64;93.29
71573;BME280;59408;51.032;9.410;2022-11-20T12:53:52;98482.28;;;-0.46;94.25
71573;BME280;59408;51.032;9.410;2022-11-20T12:56:30;98481.69;;;-0.38;91.84
71573;BME280;59408;51.032;9.410;2022-11-20T12:59:10;98478.69;;;-0.31;91.81
71573;BME280;59408;51.032;9.410;2022-11-20T13:01:47;98474.25;;;-0.17;92.81
71573;BME280;59408;51.032;9.410;2022-11-20T13:04:24;98463.78;;;-0.13;92.02
71573;BME280;59408;51.032;9.410;2022-11-20T13:06:56;98471.91;;;-0.23;91.10